ETSBEHKD

Guest
Details From ETSB - BUCHEL
To EHKD - De Kooy
Flight Number -
Tags decoded
Created
Modified
Stats Distance 210 nm / 388 km
Max Altitude 0 ft / 0 m
Waypoints 6
Social Downloads 2
Likes 0
Share VATSIM

Download

Looking for another format? Having issues loading an existing format? Contact us
Advertisement - Login to hide

Notes

Requested: ETSB BUE10 PIPEP SPL14 OKOKO EHKD

Route

ETSB BUE10 PIPEP SPL14 OKOKO EHKD

ID Type Via Altitude Latitude Longitude Leg Dist Tot Dist Heading (true) Name
O ETSB APT - 0 ft / 0 m 50.17381˚ 7.06332˚ - 0 nm - BUCHEL
BUE10 FIX - 0 ft / 0 m 50.32836˚ 7.18359˚ 10 nm 10 nm 26° / 27° -
PIPEP FIX - 0 ft / 0 m 50.45556˚ 7.04056˚ 9 nm 19 nm 324° / 324° -
SPL14 FIX - 0 ft / 0 m 52.42665˚ 4.37199˚ 154 nm 174 nm 321° / 319° -
OKOKO FIX - 0 ft / 0 m 52.59784˚ 4.36444˚ 10 nm 184 nm 358° / 358° -
O EHKD APT - 0 ft / 0 m 52.92349˚ 4.78063˚ 24 nm 209 nm 38° / 38° De Kooy

Altitude Profile

Advertisement - Login to hide

Weather


0- 5 10 15 20 25 30 35+ Temperature / ° C

Clouds and Precipitation
Forecast for 2017-12-13 18:00 UTC. Updated 25 minutes ago

Ground ~20,000 ft ~40,000 ft Winds

ETSB

Details ICAO ETSB
Name BUCHEL
Region Germany - Military
Timezone Europe/Berlin (UTC+1.0)
Stats Elevation 1,568 ft / 478 m (AMSL)
Location 50.173808° 7.063321°
Runways 1
Magnetic Variation 1.920° E

METAR

ETSB 131720Z 21011KT 0200 -RASN FG VV000 00/00 Q0998 RESN BLACKRED

Decode

TAF

Not found

Departure Runways

ID Width Length Bearing (true) Bearing (mag) Surface Threshold Offset Overrun Length
03 148 ft / 45 m 8,232 ft / 2,509 m 29.26° 27.34° Asphalt 0 ft / 0 m 902 ft / 275 m
21 148 ft / 45 m 8,232 ft / 2,509 m 209.28° 207.36° Asphalt 0 ft / 0 m 899 ft / 274 m

EHKD

Details ICAO EHKD (DHR)
Name De Kooy
Region Netherlands
Timezone Europe/Amsterdam (UTC+1.0)
Stats Elevation 3 ft / 1 m (AMSL)
Location 52.923485° 4.780629°
Runways 1
Magnetic Variation 1.103° E

METAR

EHKD 131729Z AUTO 19017KT 6000 DZ SCT007 BKN008 FEW015CB 06/05 Q0987 GRN 22018KT 7000 -RA FEW007 SCT008 BKN016

Decode

TAF

TAF TAF EHKD 131336Z 1314/1402 23014KT 9999 FEW013 BKN060 BECMG 1317/1320 23024G35KT -RA SCT012 OVC020 TEMPO 1319/1322 24028G38KT 4500 SHRA RA BKN010 SCT015CB BKN020 PROB30 TEMPO 1319/1322 27030G40KT 3000 TSRA FEW006 SCT008 SCT012CB BECMG 1321/1322 27024G35KT SCT018

Decode

Destination Runways

ID Width Length Bearing (true) Bearing (mag) Surface Threshold Offset Overrun Length
04 98 ft / 30 m 4,178 ft / 1,273 m 33.85° 32.75° Concrete 804 ft / 245 m 0 ft / 0 m
22 98 ft / 30 m 4,178 ft / 1,273 m 213.86° 212.76° Concrete 804 ft / 245 m 0 ft / 0 m

Approach Navaids

Runway Type Ident Frequency Range Bearing (true) Bearing (mag) Slope Elevation
22 Localiser DK 109.70 MHz 18 nm / 33 km 213.84° 212.74° - 3 ft / 1 m (AMSL)
22 Glidescope DK 109.70 MHz 15 nm / 28 km 213.84° 212.74° 3.00° 3 ft / 1 m (AMSL)